createdAt,value
2018-10-21T00:00:01.392Z,36.77
2018-10-21T00:02:31.591Z,36.80
2018-10-21T00:05:00.933Z,37.30
2018-10-21T00:07:30.437Z,37.37
2018-10-21T00:10:06.564Z,36.77
2018-10-21T00:12:36.358Z,35.63
2018-10-21T00:15:07.906Z,34.70
2018-10-21T00:17:38.022Z,37.73
2018-10-21T00:20:09.565Z,37.43
2018-10-21T00:22:39.253Z,38.73
2018-10-21T00:25:09.601Z,38.80
2018-10-21T00:27:39.246Z,38.37
2018-10-21T00:30:09.408Z,39.07
2018-10-21T00:32:44.219Z,38.37
2018-10-21T00:35:16.509Z,39.33
2018-10-21T00:37:54.409Z,37.77
2018-10-21T00:40:25.910Z,40.00
2018-10-21T00:43:00.324Z,39.60
2018-10-21T00:45:31.659Z,37.20
2018-10-21T00:48:01.741Z,39.73
2018-10-21T00:50:32.382Z,37.33
2018-10-21T00:53:02.423Z,38.70
2018-10-21T00:55:35.540Z,38.27
2018-10-21T00:58:04.869Z,40.00
2018-10-21T01:00:34.809Z,38.83
2018-10-21T01:03:04.973Z,40.10
2018-10-21T01:05:34.066Z,40.83
2018-10-21T01:08:04.921Z,39.13
2018-10-21T01:10:34.293Z,38.57
2018-10-21T01:13:04.751Z,39.40
2018-10-21T01:15:35.340Z,40.80
2018-10-21T01:18:04.844Z,39.50
2018-10-21T01:20:36.295Z,41.47
2018-10-21T01:23:09.407Z,41.10
2018-10-21T01:25:40.221Z,40.50
2018-10-21T01:28:10.213Z,41.53
2018-10-21T01:30:41.603Z,41.70
2018-10-21T01:33:13.288Z,42.43
2018-10-21T01:35:42.160Z,43.43
2018-10-21T01:38:13.406Z,43.70
2018-10-21T01:40:47.177Z,44.93
2018-10-21T01:43:22.501Z,43.30
2018-10-21T01:45:52.437Z,43.20
2018-10-21T01:48:24.118Z,43.37
2018-10-21T01:50:54.782Z,42.37
2018-10-21T01:53:27.746Z,43.80
2018-10-21T01:56:00.427Z,42.90
2018-10-21T01:58:32.275Z,41.53
2018-10-21T02:01:01.386Z,45.33
2018-10-21T02:03:30.470Z,44.43
2018-10-21T02:05:59.484Z,45.77
2018-10-21T02:08:29.250Z,46.90
2018-10-21T02:10:59.251Z,46.00
2018-10-21T02:13:33.500Z,48.27
2018-10-21T02:16:03.400Z,46.60
2018-10-21T02:18:33.115Z,45.57
2018-10-21T02:21:03.493Z,45.43
2018-10-21T02:23:32.642Z,45.70
2018-10-21T02:26:02.790Z,44.97
2018-10-21T02:28:31.858Z,43.90
2018-10-21T02:31:05.461Z,44.50
2018-10-21T02:33:35.707Z,46.13
2018-10-21T02:36:05.535Z,46.23
2018-10-21T02:38:37.100Z,43.30
2018-10-21T02:41:30.462Z,46.17
2018-10-21T02:44:01.299Z,46.00
2018-10-21T02:46:33.228Z,44.93
2018-10-21T02:49:05.089Z,44.57
2018-10-21T02:51:34.213Z,44.20
2018-10-21T02:54:05.689Z,43.50
2018-10-21T02:56:36.316Z,43.43
2018-10-21T02:59:06.157Z,42.37
2018-10-21T03:01:35.206Z,40.23
2018-10-21T03:04:04.514Z,43.33
2018-10-21T03:06:35.312Z,44.00
2018-10-21T03:09:05.824Z,43.73
2018-10-21T03:11:35.649Z,44.43
2018-10-21T03:14:07.803Z,45.03
2018-10-21T03:16:39.067Z,45.40
2018-10-21T03:19:10.463Z,43.47
2018-10-21T03:21:40.366Z,44.60
2018-10-21T03:24:11.354Z,46.40
2018-10-21T03:26:41.486Z,44.87
2018-10-21T03:29:10.912Z,44.90
2018-10-21T03:31:40.090Z,45.00
2018-10-21T03:34:10.849Z,44.33
2018-10-21T03:36:40.051Z,44.67
2018-10-21T03:39:10.606Z,44.20
2018-10-21T03:41:40.381Z,42.07
2018-10-21T03:44:11.120Z,41.90
2018-10-21T03:46:43.082Z,41.97
2018-10-21T03:52:12.617Z,40.73
2018-10-21T03:54:47.960Z,38.17
2018-10-21T03:57:24.154Z,38.00
2018-10-21T03:59:53.589Z,39.43
2018-10-21T04:02:22.569Z,38.00
2018-10-21T04:04:51.474Z,37.00
2018-10-21T04:07:24.081Z,38.50
2018-10-21T04:09:54.417Z,37.00
2018-10-21T04:12:23.483Z,38.47
2018-10-21T04:14:54.018Z,36.37
2018-10-21T04:17:24.446Z,36.07
2018-10-21T04:19:55.305Z,34.93
2018-10-21T04:22:28.227Z,34.50
2018-10-21T04:24:57.213Z,35.03
2018-10-21T04:27:28.872Z,35.37
2018-10-21T04:30:00.026Z,34.00
2018-10-21T04:32:34.926Z,33.13
2018-10-21T04:35:05.077Z,34.27
2018-10-21T04:39:50.879Z,34.90
2018-10-21T04:42:22.573Z,33.10
2018-10-21T04:44:51.495Z,33.70
2018-10-21T04:47:22.539Z,33.93
2018-10-21T04:49:52.858Z,32.87
2018-10-21T04:52:22.637Z,34.93
2018-10-21T04:55:00.335Z,32.27
2018-10-21T04:57:31.504Z,33.87
2018-10-21T05:00:04.124Z,33.07
2018-10-21T05:02:33.218Z,33.37
2018-10-21T05:05:02.351Z,32.87
2018-10-21T05:07:31.337Z,32.33
2018-10-21T05:10:01.338Z,33.00
2018-10-21T05:12:30.588Z,34.37
2018-10-21T05:14:59.625Z,32.43
2018-10-21T05:17:29.376Z,31.70
2018-10-21T05:20:00.067Z,32.03
2018-10-21T05:22:32.235Z,31.90
2018-10-21T05:25:04.052Z,32.30
2018-10-21T05:27:34.319Z,33.83
2018-10-21T05:30:03.582Z,32.13
2018-10-21T05:32:33.973Z,34.30
2018-10-21T05:35:04.416Z,33.50
2018-10-21T05:37:34.504Z,33.03
2018-10-21T05:40:04.514Z,31.47
2018-10-21T05:42:40.220Z,33.30
2018-10-21T05:45:09.709Z,35.27
2018-10-21T05:47:39.828Z,33.83
2018-10-21T05:50:12.010Z,33.30
2018-10-21T05:53:12.679Z,34.20
2018-10-21T05:55:45.705Z,33.97
2018-10-21T05:58:17.605Z,34.83
2018-10-21T06:00:47.249Z,35.20
2018-10-21T06:03:16.501Z,34.77
2018-10-21T06:05:50.883Z,34.80
2018-10-21T06:08:21.279Z,36.50
2018-10-21T06:10:53.727Z,36.43
2018-10-21T06:13:27.383Z,35.70
2018-10-21T06:15:58.934Z,37.07
2018-10-21T06:18:32.096Z,37.57
2018-10-21T06:21:05.537Z,38.63
2018-10-21T06:23:34.399Z,37.37
2018-10-21T06:26:03.206Z,37.70
2018-10-21T06:28:32.293Z,38.03
2018-10-21T06:31:01.085Z,36.10
2018-10-21T06:33:40.297Z,38.40
2018-10-21T06:36:11.407Z,38.47
2018-10-21T06:38:40.492Z,37.90
2018-10-21T06:41:09.637Z,38.57
2018-10-21T06:43:38.416Z,37.50
2018-10-21T06:46:07.287Z,37.77
2018-10-21T06:48:36.199Z,38.07
2018-10-21T06:51:05.212Z,38.53
2018-10-21T06:53:34.180Z,37.43
2018-10-21T06:56:03.092Z,38.03
2018-10-21T06:58:32.135Z,39.00
2018-10-21T07:01:11.287Z,36.00
2018-10-21T07:03:40.150Z,37.70
2018-10-21T07:06:14.966Z,35.43
2018-10-21T07:08:44.325Z,37.83
2018-10-21T07:11:13.549Z,36.57
2018-10-21T07:13:42.564Z,37.13
2018-10-21T07:16:11.928Z,37.20
2018-10-21T07:18:41.321Z,37.13
2018-10-21T07:21:10.335Z,37.30
2018-10-21T07:23:39.772Z,37.00
2018-10-21T07:26:09.288Z,48.30
2018-10-21T07:28:38.317Z,38.23
2018-10-21T07:31:07.106Z,35.43
2018-10-21T07:33:36.740Z,36.97
2018-10-21T07:36:06.917Z,36.10
2018-10-21T07:38:35.827Z,35.93
2018-10-21T07:41:04.921Z,35.53
2018-10-21T07:43:33.891Z,36.13
2018-10-21T07:46:02.845Z,36.27
2018-10-21T07:48:32.426Z,35.67
2018-10-21T07:51:01.220Z,36.00
2018-10-21T07:53:30.157Z,36.30
2018-10-21T07:55:59.123Z,34.63
2018-10-21T07:58:28.264Z,43.57
2018-10-21T08:00:58.690Z,37.20
2018-10-21T08:03:27.503Z,35.83
2018-10-21T08:06:19.067Z,37.87
2018-10-21T08:08:49.702Z,39.43
2018-10-21T08:11:18.489Z,36.30
2018-10-21T08:13:47.477Z,35.77
2018-10-21T08:16:16.609Z,34.80
2018-10-21T08:18:46.104Z,33.93
2018-10-21T08:21:15.064Z,35.67
2018-10-21T08:23:43.720Z,35.37
2018-10-21T08:26:12.688Z,36.63
2018-10-21T08:28:48.119Z,35.77
2018-10-21T08:31:17.202Z,34.80
2018-10-21T08:33:46.066Z,34.33
2018-10-21T08:36:15.088Z,35.27
2018-10-21T08:38:43.966Z,35.43
2018-10-21T08:41:13.568Z,35.73
2018-10-21T08:43:43.360Z,35.30
2018-10-21T08:46:12.474Z,36.60
2018-10-21T08:48:42.356Z,34.33
2018-10-21T08:51:13.763Z,34.97
2018-10-21T08:53:43.079Z,36.23
2018-10-21T08:56:12.189Z,35.03
2018-10-21T08:58:41.294Z,37.07
2018-10-21T09:01:11.842Z,34.60
2018-10-21T09:03:40.807Z,36.50
2018-10-21T09:06:09.904Z,36.57
2018-10-21T09:08:38.865Z,34.10
2018-10-21T09:11:07.792Z,35.43
2018-10-21T09:13:36.884Z,35.90
2018-10-21T09:16:07.241Z,35.03
2018-10-21T09:18:36.104Z,34.33
2018-10-21T09:21:05.005Z,34.80
2018-10-21T09:23:33.884Z,37.07
2018-10-21T09:26:03.024Z,34.73
2018-10-21T09:28:32.080Z,34.90
2018-10-21T09:31:01.469Z,34.33
2018-10-21T09:33:31.067Z,34.80
2018-10-21T09:36:00.186Z,34.87
2018-10-21T09:38:33.921Z,34.43
2018-10-21T09:41:02.941Z,34.67
2018-10-21T09:43:32.913Z,33.67
2018-10-21T09:46:01.793Z,33.70
2018-10-21T09:48:31.561Z,35.37
2018-10-21T09:51:04.311Z,35.10
2018-10-21T09:53:33.743Z,33.47
2018-10-21T09:56:02.791Z,34.80
2018-10-21T09:58:32.611Z,35.63
2018-10-21T10:01:12.101Z,32.80
2018-10-21T10:03:41.089Z,34.13
2018-10-21T10:06:10.038Z,33.67
2018-10-21T10:08:39.369Z,33.50
2018-10-21T10:11:09.110Z,33.90
2018-10-21T10:13:40.570Z,32.00
2018-10-21T10:16:19.106Z,32.40
2018-10-21T10:18:49.313Z,31.93
2018-10-21T10:21:19.349Z,33.20
2018-10-21T10:23:49.638Z,33.17
2018-10-21T10:26:21.003Z,31.93
2018-10-21T10:28:50.196Z,32.77
2018-10-21T10:31:25.042Z,31.83
2018-10-21T10:33:54.356Z,32.43
2018-10-21T10:36:23.305Z,33.20
2018-10-21T10:38:52.503Z,31.93
2018-10-21T10:41:21.609Z,33.13
2018-10-21T10:43:50.611Z,30.70
2018-10-21T10:46:20.099Z,33.73
2018-10-21T10:48:49.049Z,31.57
2018-10-21T10:51:17.976Z,31.80
2018-10-21T10:53:46.802Z,33.57
2018-10-21T10:56:15.870Z,31.97
2018-10-21T10:58:47.118Z,29.87
2018-10-21T11:01:16.364Z,30.93
2018-10-21T11:03:46.182Z,33.33
2018-10-21T11:06:15.415Z,34.67
2018-10-21T11:08:44.618Z,30.13
2018-10-21T11:11:13.773Z,34.00
2018-10-21T11:13:44.649Z,30.53
2018-10-21T11:16:13.772Z,31.33
2018-10-21T11:18:42.600Z,30.80
2018-10-21T11:21:13.213Z,31.10
2018-10-21T11:23:44.691Z,33.10
2018-10-21T11:26:13.741Z,31.77
2018-10-21T11:28:42.847Z,32.17
2018-10-21T11:31:12.906Z,31.87
2018-10-21T11:33:42.154Z,31.80
2018-10-21T11:36:11.356Z,33.93
2018-10-21T11:38:42.084Z,31.97
2018-10-21T11:41:14.255Z,32.80
2018-10-21T11:43:44.417Z,36.70
2018-10-21T11:46:16.770Z,32.30
2018-10-21T11:48:47.327Z,33.70
2018-10-21T11:51:16.261Z,32.17
2018-10-21T11:53:47.408Z,33.67
2018-10-21T11:56:16.783Z,33.20
2018-10-21T11:58:46.530Z,32.67
2018-10-21T12:01:15.576Z,32.93
2018-10-21T12:03:45.814Z,33.60
2018-10-21T12:06:18.745Z,33.93
2018-10-21T12:08:48.028Z,31.43
2018-10-21T12:11:17.325Z,31.97
2018-10-21T12:13:49.403Z,31.40
2018-10-21T12:16:22.149Z,31.37
2018-10-21T12:18:52.432Z,32.20
2018-10-21T12:21:21.876Z,32.90
2018-10-21T12:23:51.130Z,32.30
2018-10-21T12:26:22.368Z,33.03
2018-10-21T12:28:51.919Z,31.37
2018-10-21T12:31:28.839Z,30.50
2018-10-21T12:34:02.706Z,32.97
2018-10-21T12:36:33.120Z,31.13
2018-10-21T12:39:02.331Z,31.07
2018-10-21T12:41:32.413Z,33.30
2018-10-21T12:44:08.474Z,30.47
2018-10-21T12:46:40.203Z,31.97
2018-10-21T12:49:11.525Z,32.20
2018-10-21T12:51:45.894Z,31.27
2018-10-21T12:54:18.704Z,31.20
2018-10-21T12:56:49.207Z,31.00
2018-10-21T12:59:20.943Z,30.10
2018-10-21T13:01:52.632Z,30.03
2018-10-21T13:04:23.240Z,30.80
2018-10-21T13:06:54.537Z,30.63
2018-10-21T13:09:28.320Z,30.67
2018-10-21T13:11:59.530Z,31.00
2018-10-21T13:14:29.077Z,28.57
2018-10-21T13:17:01.541Z,29.53
2018-10-21T13:19:32.689Z,28.67
2018-10-21T13:22:02.419Z,29.90
2018-10-21T13:24:33.697Z,27.00
2018-10-21T13:27:04.648Z,27.10
2018-10-21T13:29:40.438Z,26.50
2018-10-21T13:32:23.592Z,27.47
2018-10-21T13:34:52.666Z,28.87
2018-10-21T13:37:22.936Z,28.93
2018-10-21T13:39:52.912Z,28.57
2018-10-21T13:44:58.655Z,29.13
2018-10-21T13:47:31.807Z,28.00
2018-10-21T13:50:04.432Z,29.27
2018-10-21T13:52:34.058Z,29.30
2018-10-21T13:55:04.675Z,28.93
2018-10-21T13:57:36.998Z,28.53
2018-10-21T14:00:08.318Z,27.63
2018-10-21T14:02:38.613Z,26.80
2018-10-21T14:05:10.377Z,26.60
2018-10-21T14:07:43.595Z,27.00
2018-10-21T14:10:15.224Z,27.47
2018-10-21T14:12:46.118Z,26.77
2018-10-21T14:15:17.339Z,26.47
2018-10-21T14:17:46.809Z,25.27
2018-10-21T14:20:17.965Z,24.53
2018-10-21T14:22:47.659Z,24.43
2018-10-21T14:25:16.782Z,23.23
2018-10-21T14:27:46.344Z,23.40
2018-10-21T14:30:15.623Z,24.00
2018-10-21T14:32:44.620Z,22.53
2018-10-21T14:35:14.816Z,24.43
2018-10-21T14:37:44.766Z,23.27
2018-10-21T14:40:15.385Z,23.97
2018-10-21T14:42:44.590Z,24.53
2018-10-21T14:45:16.158Z,23.93
2018-10-21T14:47:45.259Z,23.13
2018-10-21T14:50:16.422Z,23.10
2018-10-21T14:52:45.590Z,23.73
2018-10-21T14:55:16.784Z,23.17
2018-10-21T14:57:45.714Z,23.63
2018-10-21T15:00:15.573Z,22.97
2018-10-21T15:02:44.982Z,21.63
2018-10-21T15:05:15.243Z,23.30
2018-10-21T15:07:46.186Z,23.80
2018-10-21T15:10:17.610Z,24.87
2018-10-21T15:12:51.989Z,25.73
2018-10-21T15:15:22.668Z,22.90
2018-10-21T15:17:53.332Z,25.67
2018-10-21T15:20:24.027Z,24.20
2018-10-21T15:22:54.363Z,23.93
2018-10-21T15:25:27.432Z,24.93
2018-10-21T15:27:57.927Z,25.83
2018-10-21T15:30:27.999Z,25.90
2018-10-21T15:33:01.676Z,24.40
2018-10-21T15:35:32.182Z,26.80
2018-10-21T15:38:04.260Z,26.20
2018-10-21T15:40:36.714Z,26.17
2018-10-21T15:43:06.064Z,28.00
2018-10-21T15:46:49.109Z,25.93
2018-10-21T15:49:21.121Z,25.10
2018-10-21T15:51:58.320Z,27.63
2018-10-21T15:58:18.510Z,25.73
2018-10-21T16:00:47.976Z,25.50
2018-10-21T16:06:02.436Z,26.50
2018-10-21T16:08:39.914Z,27.03
2018-10-21T16:11:17.524Z,26.77
2018-10-21T16:14:07.443Z,26.73
2018-10-21T16:16:44.632Z,27.53
2018-10-21T16:22:39.040Z,27.63
2018-10-21T16:25:11.347Z,27.17
2018-10-21T16:32:16.237Z,28.90
2018-10-21T16:34:54.844Z,28.50
2018-10-21T16:42:04.615Z,27.33
2018-10-21T16:50:40.050Z,29.93
2018-10-21T16:54:21.975Z,27.87
2018-10-21T17:11:24.018Z,26.80
2018-10-21T17:13:56.554Z,26.93
2018-10-21T17:16:35.008Z,27.97
2018-10-21T17:19:09.684Z,27.43
2018-10-21T17:21:41.967Z,29.43
2018-10-21T17:24:20.789Z,29.40
2018-10-21T17:26:51.958Z,28.63
2018-10-21T17:29:31.570Z,29.40
2018-10-21T17:32:02.215Z,31.53
2018-10-21T17:34:33.092Z,34.63
2018-10-21T17:37:44.546Z,31.47
2018-10-21T17:40:15.952Z,32.43
2018-10-21T17:42:54.009Z,33.97
2018-10-21T17:45:24.836Z,32.43
2018-10-21T17:47:57.622Z,35.70
2018-10-21T17:50:32.748Z,41.07
2018-10-21T17:53:08.186Z,42.30
2018-10-21T17:55:43.006Z,37.10
2018-10-21T17:58:12.965Z,32.80
2018-10-21T18:00:45.734Z,31.73
2018-10-21T18:03:18.817Z,32.40
2018-10-21T18:05:51.638Z,32.90
2018-10-21T18:08:21.117Z,33.90
2018-10-21T18:10:50.360Z,34.83
2018-10-21T18:13:21.208Z,30.97
2018-10-21T18:16:18.805Z,34.10
2018-10-21T18:18:50.041Z,33.03
2018-10-21T18:21:19.449Z,34.13
2018-10-21T18:23:50.464Z,34.33
2018-10-21T18:26:40.699Z,32.70
2018-10-21T18:29:47.761Z,34.03
2018-10-21T18:32:46.893Z,35.40
2018-10-21T18:35:17.983Z,36.00
2018-10-21T18:37:48.615Z,36.50
2018-10-21T18:40:21.495Z,35.80
2018-10-21T18:43:16.383Z,36.73
2018-10-21T18:46:17.812Z,37.87
2018-10-21T18:51:55.961Z,37.40
2018-10-21T18:54:50.719Z,37.90
2018-10-21T18:57:39.388Z,39.50
2018-10-21T19:00:17.553Z,39.97
2018-10-21T19:02:56.481Z,40.63
2018-10-21T19:05:29.112Z,39.97
2018-10-21T19:10:50.702Z,40.37
2018-10-21T19:15:57.454Z,40.80
2018-10-21T19:18:28.019Z,41.03
2018-10-21T19:21:02.649Z,40.00
2018-10-21T19:23:33.999Z,40.33
2018-10-21T19:26:11.592Z,41.27
2018-10-21T19:31:22.677Z,41.93
2018-10-21T19:33:56.815Z,44.77
2018-10-21T19:36:27.661Z,44.53
2018-10-21T19:39:00.258Z,45.37
2018-10-21T19:44:45.402Z,44.87
2018-10-21T19:47:19.356Z,45.37
2018-10-21T19:49:53.786Z,46.80
2018-10-21T19:52:31.334Z,44.93
2018-10-21T19:55:27.390Z,46.47
2018-10-21T19:58:08.058Z,49.90
2018-10-21T20:00:38.066Z,50.63
2018-10-21T20:03:10.278Z,54.57
2018-10-21T20:05:39.632Z,50.43
2018-10-21T20:08:09.720Z,56.47
2018-10-21T20:10:39.341Z,59.73
2018-10-21T20:13:10.296Z,57.73
2018-10-21T20:15:42.858Z,57.73
2018-10-21T20:18:14.684Z,61.13
2018-10-21T20:20:47.040Z,58.40
2018-10-21T20:23:21.103Z,56.33
2018-10-21T20:25:57.186Z,60.20
2018-10-21T20:28:30.205Z,63.30
2018-10-21T20:31:06.949Z,61.77
2018-10-21T20:33:38.659Z,61.67
2018-10-21T20:36:13.346Z,61.33
2018-10-21T20:38:43.230Z,60.43
2018-10-21T20:41:15.643Z,58.70
2018-10-21T20:43:47.908Z,64.83
2018-10-21T20:46:22.805Z,67.73
2018-10-21T20:48:52.433Z,60.07
2018-10-21T20:51:29.141Z,63.50
2018-10-21T20:54:02.475Z,59.10
2018-10-21T20:56:34.871Z,65.77
2018-10-21T20:59:05.948Z,63.10
2018-10-21T21:01:38.156Z,60.93
2018-10-21T21:04:12.238Z,60.37
2018-10-21T21:06:44.459Z,60.03
2018-10-21T21:09:17.655Z,58.73
2018-10-21T21:11:47.674Z,57.43
2018-10-21T21:14:18.630Z,55.73
2018-10-21T21:16:47.963Z,57.73
2018-10-21T21:19:19.183Z,55.80
2018-10-21T21:21:51.709Z,55.87
2018-10-21T21:24:21.664Z,54.20
2018-10-21T21:26:54.074Z,53.10
2018-10-21T21:29:26.041Z,51.47
2018-10-21T21:31:59.581Z,53.03
2018-10-21T21:34:29.979Z,54.77
2018-10-21T21:37:02.202Z,55.97
2018-10-21T21:39:35.192Z,59.07
2018-10-21T21:42:05.616Z,59.33
2018-10-21T21:44:39.040Z,60.13
2018-10-21T21:47:09.503Z,67.67
2018-10-21T21:49:40.102Z,62.77
2018-10-21T21:52:09.369Z,55.00
2018-10-21T21:54:39.185Z,57.57
2018-10-21T21:57:08.966Z,58.13
2018-10-21T21:59:44.424Z,59.93
2018-10-21T22:02:14.783Z,57.60
2018-10-21T22:04:43.756Z,55.10
2018-10-21T22:07:13.183Z,57.53
2018-10-21T22:09:54.886Z,56.23
2018-10-21T22:12:24.899Z,52.20
2018-10-21T22:14:59.489Z,59.47
2018-10-21T22:17:32.846Z,58.70
2018-10-21T22:20:04.484Z,68.17
2018-10-21T22:22:45.164Z,57.17
2018-10-21T22:25:16.896Z,57.07
2018-10-21T22:27:59.768Z,59.87
2018-10-21T22:30:29.086Z,53.57
2018-10-21T22:32:58.954Z,42.37
2018-10-21T22:35:30.297Z,36.70
2018-10-21T22:38:01.318Z,37.73
2018-10-21T22:40:31.019Z,32.73
2018-10-21T22:43:00.239Z,34.63
2018-10-21T22:45:29.254Z,33.43
2018-10-21T22:48:00.280Z,32.33
2018-10-21T22:50:31.401Z,28.20
2018-10-21T22:53:03.437Z,27.30
2018-10-21T22:55:32.810Z,28.07
2018-10-21T22:58:06.308Z,26.87
2018-10-21T23:00:35.568Z,23.73
2018-10-21T23:03:05.394Z,27.30
2018-10-21T23:05:42.151Z,28.60
2018-10-21T23:08:26.843Z,30.80
2018-10-21T23:11:04.096Z,29.30
2018-10-21T23:16:42.948Z,27.93
2018-10-21T23:19:29.100Z,29.97
2018-10-21T23:25:09.208Z,22.70
2018-10-21T23:27:55.038Z,20.97
2018-10-21T23:30:30.954Z,17.03
2018-10-21T23:33:01.684Z,14.80
2018-10-21T23:35:36.313Z,14.30
2018-10-21T23:38:40.867Z,12.60
2018-10-21T23:41:10.867Z,13.37
2018-10-21T23:43:42.661Z,14.23
2018-10-21T23:46:14.116Z,12.70
2018-10-21T23:48:47.689Z,14.20
2018-10-21T23:51:22.161Z,11.13
2018-10-21T23:53:54.129Z,13.07
2018-10-21T23:56:31.276Z,11.27
2018-10-21T23:59:06.209Z,7.93
